Time;durP1;ratioP1;P1;durP2;ratioP2;P2;SDS_P1;SDS_P2;PMS_P1;PMS_P2;Temp;Humidity;BMP_temperature;BMP_pressure;BME280_temperature;BME280_humidity;BME280_pressure;Samples;Min_cycle;Max_cycle;Signal;HPM_P1;HPM_P2
2024/01/24 00:02:07;;;;;;;7.70;2.58;;;12.90;99.90;;;;;;5073252;28;20048;-53
2024/01/24 00:04:33;;;;;;;6.95;2.33;;;12.40;99.90;;;;;;5072944;28;21293;-56
2024/01/24 00:06:59;;;;;;;8.85;2.72;;;13.00;99.90;;;;;;5073090;28;20041;-55
2024/01/24 00:09:25;;;;;;;5.53;2.70;;;12.90;99.90;;;;;;5072944;28;20044;-56
2024/01/24 00:11:50;;;;;;;6.47;2.40;;;13.00;99.90;;;;;;5071728;28;20060;-53
2024/01/24 00:14:16;;;;;;;6.85;2.22;;;12.90;99.90;;;;;;5072454;28;20037;-52
2024/01/24 00:16:42;;;;;;;5.82;1.95;;;12.60;99.90;;;;;;5071891;28;20036;-55
2024/01/24 00:19:07;;;;;;;5.80;2.30;;;12.60;99.90;;;;;;5068371;28;20041;-54
2024/01/24 00:21:33;;;;;;;5.25;2.00;;;12.70;99.90;;;;;;5073129;28;20064;-55
2024/01/24 00:23:59;;;;;;;5.72;1.83;;;13.00;99.90;;;;;;5072868;28;20105;-57
2024/01/24 00:26:24;;;;;;;6.57;1.90;;;12.70;99.90;;;;;;5072761;28;20563;-56
2024/01/24 00:28:50;;;;;;;5.57;2.03;;;13.00;99.90;;;;;;5072953;28;20048;-54
2024/01/24 00:31:16;;;;;;;5.25;1.77;;;12.70;99.90;;;;;;5072737;28;20044;-56
2024/01/24 00:33:41;;;;;;;5.20;1.80;;;12.80;99.90;;;;;;5072769;28;20494;-55
2024/01/24 00:36:07;;;;;;;6.80;1.80;;;13.10;99.90;;;;;;5072744;28;20040;-56
2024/01/24 00:38:33;;;;;;;7.72;1.50;;;12.90;99.90;;;;;;5072872;28;20067;-53
2024/01/24 00:40:58;;;;;;;6.20;1.60;;;13.20;99.90;;;;;;5071936;28;20046;-56
2024/01/24 00:43:25;;;;;;;6.22;1.80;;;12.90;99.90;;;;;;5072469;28;20479;-55
2024/01/24 00:45:51;;;;;;;6.38;1.80;;;12.90;99.90;;;;;;5072250;28;20506;-56
2024/01/24 00:48:17;;;;;;;5.03;1.50;;;13.10;99.90;;;;;;5071077;28;20033;-53
2024/01/24 00:50:42;;;;;;;4.93;1.48;;;13.30;99.90;;;;;;5071049;28;20458;-54
2024/01/24 00:53:15;;;;;;;6.50;1.90;;;13.00;99.90;;;;;;5072566;28;20036;-54
2024/01/24 00:55:41;;;;;;;7.68;1.77;;;13.10;99.90;;;;;;5072442;28;20043;-54
2024/01/24 00:58:07;;;;;;;4.97;1.27;;;13.30;99.90;;;;;;5071786;28;20036;-52
2024/01/24 01:00:33;;;;;;;4.75;1.77;;;13.20;99.90;;;;;;5072030;28;20040;-56
2024/01/24 01:02:58;;;;;;;5.82;1.63;;;12.80;99.90;;;;;;5071886;28;20028;-52
2024/01/24 01:05:24;;;;;;;5.15;1.23;;;13.00;99.90;;;;;;5072102;28;20549;-55
2024/01/24 01:07:50;;;;;;;6.05;1.55;;;13.00;99.90;;;;;;5072062;28;20120;-56
2024/01/24 01:10:16;;;;;;;5.65;1.40;;;12.60;99.90;;;;;;5071782;28;20127;-53
2024/01/24 01:12:42;;;;;;;3.40;1.00;;;12.80;99.90;;;;;;5071706;28;20521;-54
2024/01/24 01:15:08;;;;;;;3.75;1.10;;;12.80;99.90;;;;;;5071735;28;20075;-55
2024/01/24 01:17:34;;;;;;;3.65;1.08;;;12.80;99.90;;;;;;5071162;28;20076;-57
2024/01/24 01:19:59;;;;;;;4.03;1.08;;;13.00;99.90;;;;;;5071424;28;20483;-55
2024/01/24 01:22:25;;;;;;;3.05;1.10;;;12.60;99.90;;;;;;5071847;28;20045;-56
2024/01/24 01:24:51;;;;;;;3.90;1.05;;;13.00;99.90;;;;;;5071038;28;20412;-56
2024/01/24 01:27:16;;;;;;;2.83;1.00;;;12.80;99.90;;;;;;5071412;28;20039;-56
2024/01/24 01:29:42;;;;;;;4.43;1.10;;;12.70;99.90;;;;;;5071686;28;20036;-56
2024/01/24 01:32:08;;;;;;;3.22;1.00;;;12.70;99.90;;;;;;5071268;28;20072;-56
2024/01/24 01:34:33;;;;;;;4.15;1.20;;;13.00;99.90;;;;;;5071781;28;20040;-56
2024/01/24 01:36:59;;;;;;;4.05;1.20;;;12.70;99.90;;;;;;5071554;28;20052;-54
2024/01/24 01:39:25;;;;;;;3.83;0.88;;;12.80;99.90;;;;;;5070331;28;20116;-54
2024/01/24 01:41:51;;;;;;;5.03;1.20;;;12.70;99.90;;;;;;5070535;28;20033;-56
2024/01/24 01:44:17;;;;;;;3.03;1.00;;;12.60;99.90;;;;;;5071170;28;20076;-56
2024/01/24 01:46:46;;;;;;;3.30;0.88;;;13.00;99.90;;;;;;5070700;28;20094;-56
2024/01/24 01:49:12;;;;;;;5.38;1.20;;;12.90;99.90;;;;;;5071250;28;20050;-56
2024/01/24 01:51:38;;;;;;;7.93;1.40;;;13.00;99.90;;;;;;5071335;28;20072;-55
2024/01/24 01:54:06;;;;;;;4.63;1.10;;;12.50;99.90;;;;;;5071038;28;20079;-55
2024/01/24 01:56:32;;;;;;;5.32;1.30;;;12.50;99.90;;;;;;5069978;28;20084;-53
2024/01/24 01:58:58;;;;;;;9.05;1.45;;;12.80;99.90;;;;;;5070707;28;21294;-56
2024/01/24 02:01:24;;;;;;;9.77;1.60;;;12.90;99.90;;;;;;5071055;28;20438;-54
2024/01/24 02:03:49;;;;;;;5.47;1.25;;;12.50;99.90;;;;;;5071020;28;20035;-55
2024/01/24 02:06:15;;;;;;;6.38;1.40;;;12.80;99.90;;;;;;5071090;28;20467;-56
2024/01/24 02:08:43;;;;;;;6.25;1.27;;;12.60;99.90;;;;;;5070664;28;20032;-55
2024/01/24 02:11:09;;;;;;;4.95;1.23;;;12.50;99.90;;;;;;5070323;28;20041;-55
2024/01/24 02:13:35;;;;;;;7.13;1.45;;;12.80;99.90;;;;;;5070992;28;20029;-54
2024/01/24 02:16:03;;;;;;;6.18;1.20;;;12.50;99.90;;;;;;5070659;28;20395;-56
2024/01/24 02:18:29;;;;;;;8.48;1.35;;;12.60;99.90;;;;;;5070667;28;20056;-56
2024/01/24 02:20:56;;;;;;;8.60;1.67;;;13.00;99.90;;;;;;5070506;28;20080;-56
2024/01/24 02:23:26;;;;;;;5.47;1.60;;;12.40;99.90;;;;;;5070874;28;20036;-57
2024/01/24 02:25:53;;;;;;;7.55;1.45;;;12.70;99.90;;;;;;5070384;28;20037;-55
2024/01/24 02:28:19;;;;;;;6.60;1.80;;;12.60;99.90;;;;;;5070623;28;20097;-55
2024/01/24 02:30:45;;;;;;;9.18;1.70;;;12.10;99.90;;;;;;5070470;28;20111;-58
2024/01/24 02:33:12;;;;;;;8.18;1.75;;;12.30;99.90;;;;;;5070526;28;20036;-55
2024/01/24 02:35:37;;;;;;;6.65;1.80;;;11.80;99.90;;;;;;5069988;28;20410;-57
2024/01/24 02:38:03;;;;;;;12.10;2.17;;;12.50;99.90;;;;;;5070721;28;20062;-57
2024/01/24 02:40:29;;;;;;;11.77;2.20;;;11.70;99.90;;;;;;5070602;28;20068;-57
2024/01/24 02:42:55;;;;;;;10.45;1.90;;;11.60;99.90;;;;;;5070014;28;20047;-56
2024/01/24 02:45:20;;;;;;;6.63;1.83;;;12.20;99.90;;;;;;5070465;28;20464;-56
2024/01/24 02:47:46;;;;;;;9.73;1.60;;;11.90;99.90;;;;;;5070249;28;20046;-56
2024/01/24 02:50:12;;;;;;;11.40;2.28;;;11.60;99.90;;;;;;5070473;28;20125;-53
2024/01/24 02:52:38;;;;;;;10.50;2.03;;;11.80;99.90;;;;;;5070082;28;20064;-57
2024/01/24 02:55:06;;;;;;;7.47;1.73;;;12.10;99.90;;;;;;5070387;28;20562;-52
2024/01/24 02:57:31;;;;;;;14.20;1.95;;;11.80;99.90;;;;;;5070249;28;20133;-55
2024/01/24 02:59:57;;;;;;;14.88;2.05;;;11.80;99.90;;;;;;5070227;28;20068;-56
2024/01/24 03:02:23;;;;;;;11.63;2.13;;;11.50;99.90;;;;;;5070445;28;20446;-55
2024/01/24 03:04:48;;;;;;;15.25;2.42;;;11.30;99.90;;;;;;5070243;28;20071;-56
2024/01/24 03:07:14;;;;;;;15.70;2.47;;;11.40;99.90;;;;;;5069916;28;20472;-55
2024/01/24 03:09:39;;;;;;;11.98;1.95;;;11.60;99.90;;;;;;5069799;28;20040;-56
2024/01/24 03:12:05;;;;;;;10.60;2.35;;;11.70;99.90;;;;;;5069584;28;20115;-53
2024/01/24 03:14:31;;;;;;;11.70;2.40;;;11.60;99.90;;;;;;5070052;28;20498;-57
2024/01/24 03:16:56;;;;;;;10.95;2.08;;;11.80;99.90;;;;;;5069968;28;20512;-53
2024/01/24 03:19:22;;;;;;;11.05;1.92;;;11.40;99.90;;;;;;5069775;28;20514;-53
2024/01/24 03:21:48;;;;;;;13.05;2.35;;;11.50;99.90;;;;;;5070095;28;20392;-55
2024/01/24 03:24:14;;;;;;;10.98;2.13;;;11.50;99.90;;;;;;5070229;28;20035;-55
2024/01/24 03:26:39;;;;;;;15.60;2.03;;;11.40;99.90;;;;;;5069859;28;20098;-53
2024/01/24 03:29:05;;;;;;;11.23;2.38;;;11.60;99.90;;;;;;5069895;28;20044;-56
2024/01/24 03:31:31;;;;;;;13.27;2.40;;;11.50;99.90;;;;;;5070159;28;20032;-56
2024/01/24 03:33:56;;;;;;;11.00;2.22;;;11.60;99.90;;;;;;5068726;28;20071;-52
2024/01/24 03:36:22;;;;;;;13.80;2.70;;;11.30;99.90;;;;;;5069849;28;20048;-57
2024/01/24 03:38:48;;;;;;;16.63;2.85;;;11.50;99.90;;;;;;5069536;28;20028;-53
2024/01/24 03:41:14;;;;;;;24.40;3.55;;;11.30;99.90;;;;;;5069488;28;20468;-54
2024/01/24 03:43:40;;;;;;;15.82;3.10;;;11.50;99.90;;;;;;5069372;28;20047;-56
2024/01/24 03:46:06;;;;;;;17.80;3.05;;;11.30;99.90;;;;;;5069734;28;20033;-56
2024/01/24 03:48:32;;;;;;;22.73;4.05;;;11.30;99.90;;;;;;5073479;28;20032;-56
2024/01/24 03:50:58;;;;;;;20.92;3.45;;;11.40;99.90;;;;;;5073071;28;20093;-56
2024/01/24 03:53:24;;;;;;;22.45;4.07;;;11.20;99.90;;;;;;5073198;28;20042;-53
2024/01/24 03:55:50;;;;;;;24.20;4.25;;;11.30;99.90;;;;;;5073218;28;20067;-54
2024/01/24 03:58:16;;;;;;;23.35;4.35;;;11.40;99.90;;;;;;5073164;28;20028;-55
2024/01/24 04:00:41;;;;;;;22.80;4.22;;;11.30;99.90;;;;;;5073653;28;20039;-56
2024/01/24 04:03:07;;;;;;;16.50;3.40;;;11.40;99.90;;;;;;5073328;28;20080;-55
2024/01/24 04:05:33;;;;;;;18.92;3.70;;;11.30;99.90;;;;;;5073314;28;20039;-57
2024/01/24 04:07:59;;;;;;;19.10;3.75;;;11.50;99.90;;;;;;5073134;28;20037;-55
2024/01/24 04:10:24;;;;;;;21.98;3.67;;;11.60;99.90;;;;;;5073555;28;20032;-56
2024/01/24 04:12:50;;;;;;;24.85;4.03;;;11.50;99.90;;;;;;5072455;28;20044;-53
2024/01/24 04:15:16;;;;;;;26.40;4.97;;;11.50;99.90;;;;;;5073266;28;20041;-56
2024/01/24 04:17:42;;;;;;;21.77;4.05;;;11.50;99.90;;;;;;5072958;28;20037;-55
2024/01/24 04:20:08;;;;;;;27.88;4.28;;;11.60;99.90;;;;;;5070604;28;20060;-55
2024/01/24 04:22:35;;;;;;;18.30;3.70;;;11.50;99.90;;;;;;5072157;28;20049;-55
2024/01/24 04:25:00;;;;;;;23.30;3.78;;;11.60;99.90;;;;;;5070728;28;20083;-56
2024/01/24 04:27:27;;;;;;;22.08;4.20;;;11.50;99.90;;;;;;5072525;28;20064;-55
2024/01/24 04:29:53;;;;;;;24.75;4.68;;;11.50;99.90;;;;;;5072093;28;20037;-54
2024/01/24 04:32:19;;;;;;;23.00;4.28;;;11.70;99.90;;;;;;5071608;28;20044;-57
2024/01/24 04:34:44;;;;;;;24.55;4.65;;;11.60;99.90;;;;;;5072293;28;20501;-55
2024/01/24 04:37:10;;;;;;;22.17;4.35;;;11.70;99.90;;;;;;5072048;28;20040;-56
2024/01/24 04:39:36;;;;;;;29.17;5.45;;;11.60;99.90;;;;;;5072659;28;20043;-52
2024/01/24 04:42:01;;;;;;;22.52;4.53;;;11.70;99.90;;;;;;5071912;28;20040;-56
2024/01/24 04:44:27;;;;;;;27.83;4.93;;;11.70;99.90;;;;;;5072072;28;20048;-57
2024/01/24 04:46:53;;;;;;;27.63;5.75;;;11.60;99.90;;;;;;5070987;28;20033;-54
2024/01/24 04:49:18;;;;;;;25.75;5.35;;;11.60;99.90;;;;;;5072384;28;20128;-55
2024/01/24 04:51:44;;;;;;;27.02;4.75;;;11.60;99.90;;;;;;5072249;28;20068;-55
2024/01/24 04:54:10;;;;;;;35.40;5.47;;;11.50;99.90;;;;;;5072327;28;20041;-55
2024/01/24 04:56:38;;;;;;;24.63;5.32;;;11.50;99.90;;;;;;5071832;28;20048;-55
2024/01/24 04:59:04;;;;;;;30.60;5.38;;;11.40;99.90;;;;;;5071179;28;20044;-53
2024/01/24 05:01:30;;;;;;;30.00;4.90;;;11.50;99.90;;;;;;5071951;28;20434;-55
2024/01/24 05:03:55;;;;;;;33.80;4.97;;;11.50;99.90;;;;;;5071101;28;20073;-53
2024/01/24 05:06:21;;;;;;;26.90;5.35;;;11.40;99.90;;;;;;5071894;28;20587;-53
2024/01/24 05:08:47;;;;;;;33.28;5.13;;;11.30;99.90;;;;;;5072033;28;20117;-54
2024/01/24 05:11:12;;;;;;;26.98;4.95;;;11.30;99.90;;;;;;5071866;28;20024;-56
2024/01/24 05:13:39;;;;;;;29.02;5.00;;;11.20;99.90;;;;;;5071417;28;20094;-55
2024/01/24 05:16:05;;;;;;;25.02;4.90;;;11.10;99.90;;;;;;5070501;28;20041;-52
2024/01/24 05:18:31;;;;;;;33.17;6.30;;;11.10;99.90;;;;;;5071680;28;20411;-57
2024/01/24 05:20:57;;;;;;;30.40;5.57;;;11.10;99.90;;;;;;5070445;28;20040;-56
2024/01/24 05:23:22;;;;;;;31.23;5.82;;;11.00;99.90;;;;;;5071625;28;20060;-56
2024/01/24 05:25:48;;;;;;;30.95;5.88;;;11.00;99.90;;;;;;5071469;28;20041;-55
2024/01/24 05:28:14;;;;;;;37.45;6.13;;;10.90;99.90;;;;;;5070544;28;20362;-54
2024/01/24 05:30:39;;;;;;;27.42;5.68;;;10.90;99.90;;;;;;5071721;28;20041;-56
2024/01/24 05:33:05;;;;;;;27.65;5.13;;;10.90;99.90;;;;;;5070210;28;20425;-54
2024/01/24 05:35:31;;;;;;;30.52;5.70;;;10.90;99.90;;;;;;5071449;28;20475;-54
2024/01/24 05:37:56;;;;;;;29.00;5.68;;;10.90;99.90;;;;;;5070096;28;20082;-56
2024/01/24 05:40:22;;;;;;;32.65;6.07;;;10.80;99.90;;;;;;5071332;28;20036;-56
2024/01/24 05:42:48;;;;;;;36.30;6.47;;;10.70;99.90;;;;;;5071005;28;20040;-55
2024/01/24 05:45:14;;;;;;;33.47;5.95;;;10.70;99.90;;;;;;5071354;28;20111;-56
2024/01/24 05:47:40;;;;;;;42.47;7.03;;;10.70;99.90;;;;;;5071204;28;21036;-55
2024/01/24 05:50:13;;;;;;;34.03;5.85;;;10.70;99.90;;;;;;5071066;28;20103;-54
2024/01/24 05:52:40;;;;;;;34.55;6.47;;;10.60;99.90;;;;;;5071113;28;20075;-53
2024/01/24 05:55:06;;;;;;;47.90;7.32;;;10.60;99.90;;;;;;5070946;28;20403;-53
2024/01/24 05:57:32;;;;;;;33.63;6.13;;;10.50;99.90;;;;;;5071347;28;20040;-56
2024/01/24 05:59:59;;;;;;;35.45;6.18;;;10.50;99.90;;;;;;5071312;28;20036;-54
2024/01/24 06:02:25;;;;;;;36.70;7.25;;;10.50;99.90;;;;;;5071396;28;20048;-54
2024/01/24 06:04:50;;;;;;;38.20;6.43;;;10.50;99.90;;;;;;5070730;28;20041;-54
2024/01/24 06:07:16;;;;;;;39.25;7.00;;;10.50;99.90;;;;;;5070355;28;20036;-56
2024/01/24 06:09:42;;;;;;;40.15;6.70;;;10.50;99.90;;;;;;5070348;28;20028;-53
2024/01/24 06:12:08;;;;;;;37.83;8.40;;;10.50;99.90;;;;;;5070845;28;20043;-56
2024/01/24 06:14:33;;;;;;;41.67;7.13;;;10.40;99.90;;;;;;5071223;28;20035;-55
2024/01/24 06:16:59;;;;;;;43.95;7.07;;;10.40;99.90;;;;;;5070647;28;20038;-53
2024/01/24 06:19:25;;;;;;;34.13;6.32;;;10.30;99.90;;;;;;5070781;28;20064;-55
2024/01/24 06:21:50;;;;;;;39.55;7.57;;;10.30;99.90;;;;;;5070726;28;20799;-54
2024/01/24 06:24:17;;;;;;;35.78;6.45;;;10.40;99.90;;;;;;5070658;28;20375;-54
2024/01/24 06:26:43;;;;;;;43.92;7.82;;;10.40;99.90;;;;;;5070536;28;20044;-54
2024/01/24 06:29:08;;;;;;;41.00;7.18;;;10.40;99.90;;;;;;5071094;28;20029;-54
2024/01/24 06:31:34;;;;;;;40.72;7.53;;;10.40;99.90;;;;;;5070500;28;20394;-56
2024/01/24 06:34:00;;;;;;;40.33;6.95;;;10.40;99.90;;;;;;5070718;28;20441;-55
2024/01/24 06:36:26;;;;;;;35.38;7.60;;;10.40;99.90;;;;;;5070429;28;20044;-53
2024/01/24 06:38:51;;;;;;;37.70;7.03;;;10.40;99.90;;;;;;5070479;28;20036;-54
2024/01/24 06:41:17;;;;;;;33.30;6.78;;;10.50;99.90;;;;;;5070567;28;20044;-54
2024/01/24 06:43:43;;;;;;;41.70;6.50;;;10.50;99.90;;;;;;5068758;28;20044;-55
2024/01/24 06:46:09;;;;;;;36.47;7.80;;;10.50;99.90;;;;;;5070569;28;20080;-56
2024/01/24 06:48:35;;;;;;;39.70;6.78;;;10.50;99.90;;;;;;5070406;28;20117;-55
2024/01/24 06:51:00;;;;;;;40.80;7.05;;;10.50;99.90;;;;;;5070371;28;20036;-56
2024/01/24 06:53:26;;;;;;;39.97;7.45;;;10.60;99.90;;;;;;5069961;28;20067;-55
2024/01/24 06:55:52;;;;;;;42.53;7.15;;;10.50;99.90;;;;;;5069036;28;20049;-54
2024/01/24 06:58:18;;;;;;;36.90;7.05;;;10.60;99.90;;;;;;5069333;28;20101;-55
2024/01/24 07:00:44;;;;;;;41.50;7.20;;;10.60;99.90;;;;;;5070325;28;20446;-54
2024/01/24 07:03:09;;;;;;;38.33;7.70;;;10.60;99.90;;;;;;5070398;28;20035;-55
2024/01/24 07:05:35;;;;;;;41.95;7.30;;;10.60;99.90;;;;;;5069743;28;20037;-57
2024/01/24 07:08:01;;;;;;;45.95;8.70;;;10.60;99.90;;;;;;5070159;28;20044;-55
2024/01/24 07:10:27;;;;;;;38.53;7.07;;;10.70;99.90;;;;;;5070386;28;20107;-54
2024/01/24 07:12:52;;;;;;;41.20;8.20;;;10.70;99.90;;;;;;5070008;28;20438;-55
2024/01/24 07:15:18;;;;;;;32.17;6.38;;;10.60;99.90;;;;;;5069911;28;20559;-53
2024/01/24 07:17:45;;;;;;;38.08;7.65;;;10.60;99.90;;;;;;5070116;28;20084;-53
2024/01/24 07:20:12;;;;;;;47.67;8.05;;;10.70;99.90;;;;;;5069997;28;20052;-55
2024/01/24 07:22:38;;;;;;;36.00;8.05;;;10.60;99.90;;;;;;5072799;28;20497;-56
2024/01/24 07:25:07;;;;;;;37.15;7.20;;;10.60;99.90;;;;;;5056351;28;20049;-54
2024/01/24 07:27:33;;;;;;;41.67;7.07;;;10.70;99.90;;;;;;5074339;28;20032;-56
2024/01/24 07:29:58;;;;;;;43.95;7.45;;;10.60;99.90;;;;;;5073805;28;20037;-55
2024/01/24 07:32:24;;;;;;;35.50;6.70;;;10.60;99.90;;;;;;5073880;28;20082;-55
2024/01/24 07:34:50;;;;;;;36.15;7.47;;;10.60;99.90;;;;;;5073454;28;20539;-56
2024/01/24 07:37:15;;;;;;;40.40;7.88;;;10.60;99.90;;;;;;5073617;28;20024;-55
2024/01/24 07:39:41;;;;;;;38.95;7.35;;;10.50;99.90;;;;;;5073880;28;20094;-56
2024/01/24 07:42:07;;;;;;;37.22;6.80;;;10.40;99.90;;;;;;5069389;28;20052;-56
2024/01/24 07:44:33;;;;;;;37.30;6.53;;;10.40;99.90;;;;;;5071111;28;20044;-56
2024/01/24 07:46:59;;;;;;;41.97;7.07;;;10.30;99.90;;;;;;5071972;28;20041;-55
2024/01/24 07:49:24;;;;;;;45.88;8.00;;;10.30;99.90;;;;;;5069327;28;20129;-56
2024/01/24 07:51:50;;;;;;;36.63;6.93;;;10.30;99.90;;;;;;5068855;28;20033;-54
2024/01/24 07:54:17;;;;;;;30.40;6.60;;;10.20;99.90;;;;;;5062178;28;20041;-56
2024/01/24 07:56:44;;;;;;;42.80;8.48;;;10.20;99.90;;;;;;5066583;28;20529;-56
2024/01/24 07:59:12;;;;;;;36.80;6.93;;;10.20;99.90;;;;;;5065985;28;20034;-56
2024/01/24 08:01:37;;;;;;;40.20;8.18;;;10.20;99.90;;;;;;5065650;28;20044;-56
2024/01/24 08:04:04;;;;;;;45.30;10.18;;;10.20;99.90;;;;;;5066810;28;20514;-53
2024/01/24 08:06:30;;;;;;;41.85;7.28;;;10.20;99.90;;;;;;5064366;28;20040;-55
2024/01/24 08:08:55;;;;;;;45.22;7.28;;;10.20;99.90;;;;;;5065385;28;20044;-55
2024/01/24 08:11:23;;;;;;;43.05;8.07;;;10.20;99.90;;;;;;5065699;28;20507;-55
2024/01/24 08:13:48;;;;;;;42.33;8.23;;;10.30;99.90;;;;;;5065239;28;20037;-54
2024/01/24 08:16:15;;;;;;;41.47;8.10;;;10.30;99.90;;;;;;5065521;28;20036;-55
2024/01/24 08:18:40;;;;;;;41.88;7.78;;;10.30;99.90;;;;;;5062519;28;20135;-56
2024/01/24 08:21:06;;;;;;;43.28;8.77;;;10.30;99.90;;;;;;5066521;28;20120;-55
2024/01/24 08:23:32;;;;;;;41.88;7.78;;;10.20;99.90;;;;;;5066878;28;20051;-56
2024/01/24 08:25:57;;;;;;;41.25;8.13;;;10.20;99.90;;;;;;5066568;28;20412;-51
2024/01/24 08:28:23;;;;;;;43.85;8.45;;;10.30;99.90;;;;;;5065399;28;20090;-55
2024/01/24 08:30:49;;;;;;;37.85;7.88;;;10.60;99.90;;;;;;5063583;28;20045;-54
2024/01/24 08:33:15;;;;;;;49.45;7.78;;;10.50;99.90;;;;;;5064544;28;20036;-56
2024/01/24 08:35:41;;;;;;;43.63;8.48;;;10.30;99.90;;;;;;5064229;28;20067;-55
2024/01/24 08:38:06;;;;;;;44.05;7.63;;;10.30;99.90;;;;;;5062012;28;20036;-51
2024/01/24 08:40:32;;;;;;;43.03;7.53;;;10.30;99.90;;;;;;5060665;28;20040;-56
2024/01/24 08:42:58;;;;;;;45.95;8.85;;;10.30;99.90;;;;;;5062681;28;20061;-54
2024/01/24 08:45:23;;;;;;;34.92;7.50;;;10.30;99.90;;;;;;5061217;28;20040;-54
2024/01/24 08:47:50;;;;;;;42.38;8.02;;;10.40;99.90;;;;;;5065676;28;20039;-52
2024/01/24 08:50:16;;;;;;;36.17;6.70;;;10.40;99.90;;;;;;5062294;28;20047;-56
2024/01/24 08:52:41;;;;;;;36.95;7.95;;;10.40;99.90;;;;;;5064713;28;20045;-54
2024/01/24 08:55:07;;;;;;;36.95;7.35;;;10.40;99.90;;;;;;5063799;28;20127;-54
2024/01/24 08:57:33;;;;;;;41.53;8.27;;;10.30;99.90;;;;;;5065301;28;20555;-54
2024/01/24 09:00:03;;;;;;;41.40;8.15;;;10.30;99.90;;;;;;5065621;28;20044;-56
2024/01/24 09:02:28;;;;;;;37.38;8.35;;;10.20;99.90;;;;;;5064059;28;20079;-55
2024/01/24 09:04:54;;;;;;;41.22;7.82;;;10.20;99.90;;;;;;5064497;28;20046;-56
2024/01/24 09:07:20;;;;;;;43.10;7.55;;;9.30;99.90;;;;;;5066585;28;20132;-55
2024/01/24 09:09:50;;;;;;;36.38;7.22;;;10.20;99.90;;;;;;5066570;28;20430;-53
2024/01/24 09:12:16;;;;;;;38.03;7.45;;;10.20;99.90;;;;;;5061296;28;20040;-56
2024/01/24 09:14:44;;;;;;;41.53;7.85;;;10.20;99.90;;;;;;5065609;28;20558;-54
2024/01/24 09:17:11;;;;;;;40.40;7.63;;;10.30;99.90;;;;;;5064837;28;20047;-55
2024/01/24 09:19:36;;;;;;;34.17;7.05;;;10.30;99.90;;;;;;5065443;28;23239;-57
2024/01/24 09:22:02;;;;;;;45.78;8.23;;;10.30;99.90;;;;;;5066237;28;20123;-55
2024/01/24 09:24:28;;;;;;;37.28;8.05;;;10.40;99.90;;;;;;5066218;28;20115;-56
2024/01/24 09:26:55;;;;;;;46.00;8.55;;;10.40;99.90;;;;;;5064510;28;20044;-56
2024/01/24 09:29:20;;;;;;;44.58;8.73;;;10.40;99.90;;;;;;5067039;28;20036;-56
2024/01/24 09:31:46;;;;;;;48.70;8.32;;;10.40;99.90;;;;;;5066665;28;20024;-55
2024/01/24 09:34:12;;;;;;;35.90;7.40;;;10.50;99.90;;;;;;5066808;28;20037;-52
2024/01/24 09:36:38;;;;;;;40.83;8.02;;;10.50;99.90;;;;;;5063282;28;20373;-55
2024/01/24 09:39:04;;;;;;;39.03;6.65;;;10.40;99.90;;;;;;5064546;28;20044;-55
2024/01/24 09:41:41;;;;;;;41.58;6.95;;;10.40;99.90;;;;;;5065160;28;20081;-55
2024/01/24 09:44:11;;;;;;;42.20;7.55;;;10.40;99.90;;;;;;5061685;28;20038;-55
2024/01/24 09:46:40;;;;;;;45.60;8.02;;;10.40;99.90;;;;;;5065097;28;20047;-55
2024/01/24 09:49:06;;;;;;;37.28;8.98;;;10.50;99.90;;;;;;5063301;28;20055;-55
2024/01/24 09:51:34;;;;;;;49.25;9.00;;;10.60;99.90;;;;;;5063443;28;20055;-56
2024/01/24 09:54:09;;;;;;;39.60;7.03;;;10.50;99.90;;;;;;5065192;28;20426;-55
2024/01/24 09:56:37;;;;;;;37.63;7.75;;;10.60;99.90;;;;;;5064297;28;20047;-55
2024/01/24 09:59:10;;;;;;;36.38;6.65;;;10.50;99.90;;;;;;5063539;28;20043;-56
2024/01/24 10:01:39;;;;;;;37.72;6.97;;;10.60;99.90;;;;;;5046082;28;20047;-56
2024/01/24 10:04:07;;;;;;;34.95;6.68;;;10.60;99.90;;;;;;5063393;28;20028;-54
2024/01/24 10:06:33;;;;;;;36.35;6.75;;;10.60;99.90;;;;;;5062215;28;20116;-55
2024/01/24 10:08:59;;;;;;;36.63;6.68;;;10.70;99.90;;;;;;5064949;28;20115;-55
2024/01/24 10:11:26;;;;;;;37.75;6.93;;;10.70;99.90;;;;;;5063699;28;20028;-54
2024/01/24 10:13:57;;;;;;;32.53;6.68;;;10.70;99.90;;;;;;5064008;28;20032;-56
2024/01/24 10:16:27;;;;;;;38.55;6.93;;;10.70;99.90;;;;;;5063301;28;20067;-56
2024/01/24 10:18:56;;;;;;;41.55;6.85;;;10.70;99.90;;;;;;5062410;28;20415;-55
2024/01/24 10:21:23;;;;;;;37.45;6.57;;;10.70;99.90;;;;;;5062669;28;20047;-54
2024/01/24 10:23:49;;;;;;;35.17;6.40;;;10.80;99.90;;;;;;5062442;28;20071;-55
2024/01/24 10:26:15;;;;;;;37.70;6.10;;;10.90;99.90;;;;;;5061556;28;20094;-56
2024/01/24 10:28:43;;;;;;;36.75;7.40;;;11.00;99.90;;;;;;5077731;28;20047;-54
2024/01/24 10:31:09;;;;;;;39.17;6.82;;;11.20;99.90;;;;;;5062519;28;20119;-53
2024/01/24 10:33:35;;;;;;;37.80;7.32;;;11.30;99.90;;;;;;5062293;28;20124;-53
2024/01/24 10:36:01;;;;;;;31.65;6.20;;;11.40;99.90;;;;;;5062963;28;20119;-55
2024/01/24 10:38:31;;;;;;;34.42;6.93;;;11.50;99.90;;;;;;5063248;28;20043;-55
2024/01/24 10:41:01;;;;;;;29.13;6.25;;;11.60;99.90;;;;;;5066117;28;20044;-57
2024/01/24 10:43:28;;;;;;;36.70;6.93;;;11.60;99.90;;;;;;5068121;28;20492;-56
2024/01/24 10:45:54;;;;;;;38.53;7.25;;;11.60;99.90;;;;;;5068167;28;20076;-54
2024/01/24 10:48:21;;;;;;;34.95;7.00;;;11.60;99.90;;;;;;5067138;28;20515;-54
2024/01/24 10:50:48;;;;;;;40.33;6.90;;;11.60;99.90;;;;;;5068521;28;20041;-56
2024/01/24 10:53:14;;;;;;;34.10;6.97;;;11.70;99.90;;;;;;5070044;28;20159;-56
2024/01/24 10:55:42;;;;;;;31.05;5.65;;;11.70;99.90;;;;;;5069668;28;20423;-55
2024/01/24 10:58:11;;;;;;;36.53;6.57;;;11.80;99.90;;;;;;5074520;28;20044;-55
2024/01/24 11:00:39;;;;;;;33.95;6.10;;;11.90;99.90;;;;;;5074537;28;20119;-55
2024/01/24 11:03:06;;;;;;;28.25;6.07;;;12.00;99.90;;;;;;5074584;28;20535;-55
2024/01/24 11:05:39;;;;;;;34.05;5.90;;;11.80;99.90;;;;;;5074405;28;20044;-54
2024/01/24 11:08:19;;;;;;;29.65;6.47;;;11.80;99.90;;;;;;5074234;28;20043;-56
2024/01/24 11:10:46;;;;;;;29.17;6.32;;;11.70;99.90;;;;;;5074410;28;20040;-53
2024/01/24 11:13:12;;;;;;;32.42;5.85;;;11.70;99.90;;;;;;5073655;28;20112;-55
2024/01/24 11:15:38;;;;;;;35.10;8.38;;;11.70;99.90;;;;;;5074487;28;20115;-56
2024/01/24 11:18:25;;;;;;;31.38;6.07;;;11.60;99.90;;;;;;5074185;28;20048;-56
2024/01/24 11:20:51;;;;;;;31.52;6.03;;;11.60;99.90;;;;;;5073894;28;20496;-54
2024/01/24 11:23:40;;;;;;;31.33;6.10;;;11.70;99.90;;;;;;5074004;28;20044;-53
2024/01/24 11:26:10;;;;;;;29.85;5.78;;;11.70;99.90;;;;;;5074329;28;20089;-55
2024/01/24 11:28:36;;;;;;;32.30;6.55;;;11.80;99.90;;;;;;5072712;28;20047;-56
2024/01/24 11:31:03;;;;;;;30.88;6.32;;;11.80;99.90;;;;;;5073663;28;20040;-56
2024/01/24 11:33:29;;;;;;;38.05;5.88;;;11.90;99.90;;;;;;5074190;28;20071;-55
2024/01/24 11:35:55;;;;;;;35.78;6.05;;;11.80;99.90;;;;;;5074086;28;20579;-56
2024/01/24 11:38:24;;;;;;;25.15;5.57;;;12.00;99.90;;;;;;5073815;28;20033;-56
2024/01/24 11:41:10;;;;;;;36.55;5.57;;;12.00;99.90;;;;;;5073773;28;20040;-53
2024/01/24 11:43:36;;;;;;;27.95;5.75;;;12.20;99.90;;;;;;5073152;28;20042;-56
2024/01/24 11:46:04;;;;;;;30.60;5.80;;;12.20;99.90;;;;;;5074000;28;20049;-53
2024/01/24 11:48:32;;;;;;;35.85;5.90;;;12.20;99.90;;;;;;5073618;28;20044;-55
2024/01/24 11:51:00;;;;;;;29.27;6.30;;;12.30;99.90;;;;;;5073973;28;20146;-56
2024/01/24 11:53:27;;;;;;;26.45;5.47;;;12.40;99.90;;;;;;5073374;28;20433;-55
2024/01/24 11:55:58;;;;;;;32.03;5.88;;;12.40;99.90;;;;;;5073694;28;20115;-55
2024/01/24 11:58:28;;;;;;;28.45;5.03;;;12.40;99.90;;;;;;5073653;28;20115;-52
2024/01/24 12:00:55;;;;;;;26.67;5.90;;;12.40;99.90;;;;;;5073522;28;20028;-56
2024/01/24 12:03:21;;;;;;;34.70;6.40;;;12.40;99.90;;;;;;5073265;28;20043;-55
2024/01/24 12:05:48;;;;;;;26.08;5.40;;;12.20;99.90;;;;;;5073237;28;20046;-55
2024/01/24 12:08:13;;;;;;;27.83;6.78;;;12.20;99.90;;;;;;5073081;28;20040;-55
2024/01/24 12:10:39;;;;;;;31.40;5.82;;;12.10;99.90;;;;;;5073135;28;20036;-55
2024/01/24 12:13:06;;;;;;;31.00;6.35;;;12.00;99.90;;;;;;5073257;28;20040;-55
2024/01/24 12:15:35;;;;;;;23.98;5.50;;;12.00;99.90;;;;;;5073094;28;20037;-55
2024/01/24 12:18:07;;;;;;;34.25;6.05;;;12.00;99.90;;;;;;5073025;28;20383;-57
2024/01/24 12:20:33;;;;;;;29.40;6.00;;;12.00;99.90;;;;;;5072296;28;20059;-56
2024/01/24 12:22:59;;;;;;;29.35;5.65;;;12.00;99.90;;;;;;5073054;28;20340;-53
2024/01/24 12:25:28;;;;;;;35.25;5.88;;;11.80;99.90;;;;;;5072914;28;20090;-56
2024/01/24 12:27:56;;;;;;;27.92;5.95;;;11.70;99.90;;;;;;5073251;28;20503;-56
2024/01/24 12:30:22;;;;;;;29.40;6.15;;;11.70;99.90;;;;;;5073095;28;20545;-54
2024/01/24 12:32:48;;;;;;;27.85;5.78;;;11.70;99.90;;;;;;5072972;28;20064;-56
2024/01/24 12:35:16;;;;;;;38.25;6.60;;;11.70;99.90;;;;;;5072981;28;20083;-56